This is the latest recevied weather packets stored in our database for station/object KC0SIQ-13. If no packets are shown the sender has not sent any weather packets the latest 10 day(s).
| Time | Temp. | Humidity | Pressure | Rain* | Wind** | Luminosity | Snow |
|---|---|---|---|---|---|---|---|
| 1777478351 | 11.67° C | 59% | 1017.4 hPa | 0 mm | - | 219 W/m² | - |
| 1777478047 | 11.67° C | 59% | 1017.4 hPa | 0 mm | - | 242 W/m² | - |
| 1777477743 | 11.11° C | 59% | 1017.4 hPa | 0 mm | - | 188 W/m² | - |
| 1777477439 | 11.11° C | 58% | 1017.6 hPa | 0 mm | - | 181 W/m² | - |
| 1777477135 | 10.56° C | 61% | 1017.5 hPa | 0 mm | - | 180 W/m² | - |
| 1777476832 | 10.56° C | 61% | 1017.5 hPa | 0 mm | - | 182 W/m² | - |
| 1777476530 | 10° C | 62% | 1017.5 hPa | 0 mm | - | 154 W/m² | - |
| 1777476226 | 10° C | 62% | 1017.6 hPa | 0 mm | - | 140 W/m² | - |
| 1777475922 | 9.44° C | 62% | 1017.5 hPa | 0 mm | - | 109 W/m² | - |
| 1777475618 | 8.89° C | 63% | 1017.6 hPa | 0 mm | - | 108 W/m² | - |
| 1777475315 | 8.89° C | 64% | 1017.6 hPa | 0 mm | - | 139 W/m² | - |
| 1777475010 | 9.44° C | 62% | 1017.6 hPa | 0 mm | - | 152 W/m² | - |
| 1777474707 | 8.89° C | 64% | 1017.7 hPa | 0 mm | - | 144 W/m² | - |
| 1777474403 | 8.89° C | 63% | 1017.7 hPa | 0 mm | - | 155 W/m² | - |
| 1777474100 | 8.89° C | 63% | 1017.7 hPa | 0 mm | - | 111 W/m² | - |
| 1777473798 | 9.44° C | 61% | 1017.7 hPa | 0 mm | - | 113 W/m² | - |
| 1777473494 | 10° C | 59% | 1018.1 hPa | 0 mm | - | 122 W/m² | - |
| 1777473189 | 9.44° C | 59% | 1018 hPa | 0 mm | - | 332 W/m² | - |
| 1777472886 | 8.89° C | 60% | 1018.1 hPa | 0 mm | - | 307 W/m² | - |
| 1777472583 | 8.89° C | 61% | 1017.8 hPa | 0 mm | - | 242 W/m² | - |
| 1777472280 | 7.78° C | 64% | 1018.2 hPa | 0 mm | - | 203 W/m² | - |
| 1777471976 | 7.22° C | 65% | 1018.1 hPa | 0 mm | - | 183 W/m² | - |
| 1777471673 | 6.67° C | 65% | 1018.4 hPa | 0 mm | - | 89 W/m² | - |
| 1777471369 | 6.67° C | 65% | 1018.2 hPa | 0 mm | - | 61 W/m² | - |
| 1777471066 | 6.67° C | 67% | 1018.1 hPa | 0 mm | - | 37 W/m² | - |
* Rain latest hour (hover to see other rain measurements)
** Current wind speed in m/s (hover to see current wind gust speed)